createdAt,value
2022-12-17T00:02:26.715Z,-1.52
2022-12-17T00:05:11.601Z,-1.56
2022-12-17T00:07:56.707Z,-1.65
2022-12-17T00:10:41.453Z,-1.58
2022-12-17T00:13:37.270Z,-1.57
2022-12-17T00:16:22.915Z,-1.62
2022-12-17T00:19:08.131Z,-1.70
2022-12-17T00:21:54.355Z,-1.53
2022-12-17T00:24:41.041Z,-1.65
2022-12-17T00:27:27.646Z,-1.64
2022-12-17T00:30:12.494Z,-1.66
2022-12-17T00:32:57.615Z,-1.65
2022-12-17T00:35:42.289Z,-1.60
2022-12-17T00:38:33.543Z,-1.58
2022-12-17T00:41:18.436Z,-1.53
2022-12-17T00:44:03.203Z,-1.56
2022-12-17T00:46:48.663Z,-1.65
2022-12-17T00:49:33.980Z,-1.88
2022-12-17T00:52:18.781Z,-1.75
2022-12-17T00:55:03.741Z,-1.78
2022-12-17T00:57:48.412Z,-1.84
2022-12-17T01:00:33.974Z,-1.86
2022-12-17T01:03:28.676Z,-1.78
2022-12-17T01:06:14.138Z,-1.73
2022-12-17T01:08:58.977Z,-1.77
2022-12-17T01:11:44.410Z,-1.75
2022-12-17T01:14:29.712Z,-1.77
2022-12-17T01:17:14.629Z,-1.78
2022-12-17T01:20:02.167Z,-1.78
2022-12-17T01:22:46.917Z,-1.80
2022-12-17T01:25:31.589Z,-1.80
2022-12-17T01:28:16.702Z,-1.88
2022-12-17T01:31:01.473Z,-1.83
2022-12-17T01:33:46.874Z,-1.88
2022-12-17T01:36:32.236Z,-1.81
2022-12-17T01:39:17.237Z,-1.88
2022-12-17T01:42:01.935Z,-1.88
2022-12-17T01:45:08.777Z,-1.84
2022-12-17T01:47:58.724Z,-1.85
2022-12-17T01:50:47.656Z,-1.82
2022-12-17T01:53:35.371Z,-1.81
2022-12-17T01:56:21.176Z,-1.77
2022-12-17T01:59:07.055Z,-1.75
2022-12-17T02:01:51.855Z,-1.76
2022-12-17T02:04:37.012Z,-1.69
2022-12-17T02:07:45.165Z,-1.75
2022-12-17T02:10:52.263Z,-1.77
2022-12-17T02:13:45.684Z,-1.78
2022-12-17T02:16:45.880Z,-1.66
2022-12-17T02:20:10.172Z,-1.78
2022-12-17T02:23:25.213Z,-1.74
2022-12-17T02:26:15.342Z,-1.73
2022-12-17T02:29:04.776Z,-1.66
2022-12-17T02:31:51.643Z,-1.73
2022-12-17T02:34:36.680Z,-1.73
2022-12-17T02:37:29.820Z,-1.88
2022-12-17T02:40:27.127Z,-1.69
2022-12-17T02:43:12.095Z,-1.69
2022-12-17T02:45:57.202Z,-1.67
2022-12-17T02:48:43.253Z,-1.65
2022-12-17T02:51:29.758Z,-1.61
2022-12-17T02:54:14.644Z,-1.72
2022-12-17T02:56:59.555Z,-1.76
2022-12-17T02:59:44.447Z,-1.64
2022-12-17T03:02:29.342Z,-1.64
2022-12-17T03:05:42.937Z,-1.65
2022-12-17T03:08:19.557Z,-1.55
2022-12-17T03:11:04.265Z,-1.57
2022-12-17T03:13:57.942Z,-1.57
2022-12-17T03:16:43.102Z,-1.69
2022-12-17T03:19:28.603Z,-1.63
2022-12-17T03:22:13.855Z,-1.67
2022-12-17T03:25:13.330Z,-1.70
2022-12-17T03:27:58.476Z,-1.80
2022-12-17T03:30:48.651Z,-1.79
2022-12-17T03:33:34.607Z,-1.81
2022-12-17T03:36:24.846Z,-1.79
2022-12-17T03:39:09.663Z,-1.87
2022-12-17T03:41:54.695Z,-1.90
2022-12-17T03:44:41.691Z,-1.83
2022-12-17T03:47:26.408Z,-1.85
2022-12-17T03:50:11.233Z,-1.78
2022-12-17T03:52:56.109Z,-1.84
2022-12-17T03:55:40.951Z,-1.84
2022-12-17T03:58:25.845Z,-1.83
2022-12-17T04:01:22.213Z,-1.81
2022-12-17T04:04:07.469Z,-1.83
2022-12-17T04:06:52.075Z,-1.86
2022-12-17T04:09:37.426Z,-1.85
2022-12-17T04:12:22.731Z,-1.83
2022-12-17T04:15:07.527Z,-1.82
2022-12-17T04:17:52.430Z,-1.92
2022-12-17T04:20:37.595Z,-1.91
2022-12-17T04:23:22.312Z,-1.95
2022-12-17T04:26:07.134Z,-1.92
2022-12-17T04:29:00.368Z,-1.91
2022-12-17T04:31:45.736Z,-1.91
2022-12-17T04:34:30.748Z,-1.87
2022-12-17T04:37:15.580Z,-1.88
2022-12-17T04:40:00.454Z,-1.93
2022-12-17T04:42:45.284Z,-1.98
2022-12-17T04:45:30.242Z,-1.98
2022-12-17T04:48:25.869Z,-1.92
2022-12-17T04:51:11.376Z,-1.96
2022-12-17T04:53:56.390Z,-1.90
2022-12-17T04:56:41.265Z,-2.06
2022-12-17T04:59:26.090Z,-2.03
2022-12-17T05:02:11.140Z,-1.96
2022-12-17T05:04:56.378Z,-1.95
2022-12-17T05:07:37.810Z,-1.95
2022-12-17T05:10:23.532Z,-1.97
2022-12-17T05:13:15.789Z,-1.97
2022-12-17T05:16:02.914Z,-2.02
2022-12-17T05:18:47.816Z,-2.05
2022-12-17T05:21:33.570Z,-2.11
2022-12-17T05:24:18.801Z,-2.13
2022-12-17T05:27:03.665Z,-2.10
2022-12-17T05:29:49.064Z,-2.12
2022-12-17T05:32:33.903Z,-2.12
2022-12-17T05:35:18.788Z,-2.19
2022-12-17T05:38:03.773Z,-2.02
2022-12-17T05:40:48.676Z,-2.05
2022-12-17T05:43:33.760Z,-2.09
2022-12-17T05:46:19.281Z,-2.05
2022-12-17T05:49:04.468Z,-2.10
2022-12-17T05:51:49.822Z,-2.05
2022-12-17T05:54:34.615Z,-2.11
2022-12-17T05:57:19.563Z,-2.06
2022-12-17T06:00:04.396Z,-2.04
2022-12-17T06:02:49.316Z,-2.00
2022-12-17T06:05:34.360Z,-2.04
2022-12-17T06:08:27.011Z,-2.10
2022-12-17T06:11:12.776Z,-2.05
2022-12-17T06:13:58.180Z,-2.02
2022-12-17T06:16:42.956Z,-1.96
2022-12-17T06:19:28.009Z,-1.94
2022-12-17T06:22:12.963Z,-2.01
2022-12-17T06:24:57.776Z,-1.99
2022-12-17T06:27:42.998Z,-1.99
2022-12-17T06:30:28.362Z,-2.04
2022-12-17T06:33:22.826Z,-2.00
2022-12-17T06:36:07.865Z,-2.04
2022-12-17T06:38:52.743Z,-1.93
2022-12-17T06:41:38.018Z,-1.95
2022-12-17T06:44:23.272Z,-1.91
2022-12-17T06:47:08.155Z,-1.91
2022-12-17T06:49:57.947Z,-1.92
2022-12-17T06:52:46.064Z,-1.83
2022-12-17T06:55:30.749Z,-1.94
2022-12-17T06:58:17.706Z,-1.91
2022-12-17T07:01:03.537Z,-1.96
2022-12-17T07:03:48.453Z,-1.88
2022-12-17T07:06:33.747Z,-2.01
2022-12-17T07:09:19.096Z,-1.96
2022-12-17T07:12:03.947Z,-1.97
2022-12-17T07:14:49.034Z,-1.88
2022-12-17T07:17:34.004Z,-1.85
2022-12-17T07:20:19.020Z,-1.85
2022-12-17T07:23:03.851Z,-1.85
2022-12-17T07:25:48.673Z,-1.82
2022-12-17T07:28:33.529Z,-1.82
2022-12-17T07:31:18.453Z,-1.86
2022-12-17T07:34:03.595Z,-1.86
2022-12-17T07:36:48.844Z,-1.82
2022-12-17T07:39:35.901Z,-1.83
2022-12-17T07:42:20.765Z,-1.93
2022-12-17T07:45:05.902Z,-1.92
2022-12-17T07:47:50.864Z,-1.96
2022-12-17T07:50:35.766Z,-1.98
2022-12-17T07:53:22.198Z,-2.05
2022-12-17T07:56:03.708Z,-2.06
2022-12-17T07:58:49.495Z,-2.13
2022-12-17T08:01:34.296Z,-2.07
2022-12-17T08:04:19.468Z,-2.01
2022-12-17T08:07:09.477Z,-1.99
2022-12-17T08:09:57.329Z,-2.03
2022-12-17T08:12:42.157Z,-2.01
2022-12-17T08:15:27.484Z,-2.00
2022-12-17T08:18:22.971Z,-2.02
2022-12-17T08:21:11.465Z,-2.03
2022-12-17T08:23:56.385Z,-2.06
2022-12-17T08:26:45.819Z,-1.96
2022-12-17T08:29:34.022Z,-1.92
2022-12-17T08:32:19.415Z,-1.86
2022-12-17T08:35:04.374Z,-1.84
2022-12-17T08:37:49.979Z,-1.84
2022-12-17T08:40:35.339Z,-1.84
2022-12-17T08:43:20.064Z,-1.76
2022-12-17T08:46:10.541Z,-1.84
2022-12-17T08:48:53.006Z,-1.80
2022-12-17T08:51:40.740Z,-1.88
2022-12-17T08:54:26.119Z,-2.05
2022-12-17T08:57:10.557Z,-1.96
2022-12-17T08:59:55.561Z,-1.87
2022-12-17T09:02:41.005Z,-1.97
2022-12-17T09:05:26.977Z,-1.92
2022-12-17T09:08:24.397Z,-1.93
2022-12-17T09:11:10.282Z,-1.86
2022-12-17T09:13:56.082Z,-1.95
2022-12-17T09:16:41.697Z,-1.96
2022-12-17T09:19:29.514Z,-1.89
2022-12-17T09:22:14.507Z,-1.90
2022-12-17T09:24:59.298Z,-1.80
2022-12-17T09:27:44.673Z,-1.77
2022-12-17T09:30:30.580Z,-1.69
2022-12-17T09:33:15.790Z,-1.72
2022-12-17T09:36:01.266Z,-1.61
2022-12-17T09:39:00.681Z,-1.56
2022-12-17T09:42:12.577Z,-1.44
2022-12-17T09:45:14.302Z,-1.60
2022-12-17T09:48:21.203Z,-1.63
2022-12-17T09:51:09.384Z,-1.48
2022-12-17T09:54:09.817Z,-1.47
2022-12-17T09:57:03.219Z,-1.46
2022-12-17T09:59:52.774Z,-1.44
2022-12-17T10:02:41.310Z,-1.38
2022-12-17T10:05:43.060Z,-1.47
2022-12-17T10:08:32.297Z,-1.50
2022-12-17T10:11:32.703Z,-1.43
2022-12-17T10:14:21.847Z,-1.45
2022-12-17T10:17:11.738Z,-1.50
2022-12-17T10:20:00.365Z,-1.29
2022-12-17T10:22:45.716Z,-1.34
2022-12-17T10:25:37.830Z,-1.32
2022-12-17T10:28:38.628Z,-1.43
2022-12-17T10:31:35.267Z,-1.43
2022-12-17T10:34:20.455Z,-1.45
2022-12-17T10:37:08.660Z,-1.50
2022-12-17T10:39:54.085Z,-1.50
2022-12-17T10:43:04.544Z,-1.53
2022-12-17T10:45:54.637Z,-1.54
2022-12-17T10:48:47.072Z,-1.57
2022-12-17T10:51:53.624Z,-1.55
2022-12-17T10:54:49.870Z,-1.56
2022-12-17T10:57:53.429Z,-1.46
2022-12-17T11:00:49.142Z,-1.39
2022-12-17T11:03:57.106Z,-1.47
2022-12-17T11:06:50.806Z,-1.39
2022-12-17T11:09:41.897Z,-1.29
2022-12-17T11:12:31.289Z,-1.30
2022-12-17T11:15:21.885Z,-1.34
2022-12-17T11:18:11.685Z,-1.19
2022-12-17T11:21:31.619Z,-1.03
2022-12-17T11:24:22.688Z,-0.97
2022-12-17T11:27:12.656Z,-0.95
2022-12-17T11:29:57.933Z,-0.89
2022-12-17T11:32:46.278Z,-0.77
2022-12-17T11:36:05.143Z,-0.68
2022-12-17T11:39:17.708Z,-0.64
2022-12-17T11:42:22.573Z,-0.66
2022-12-17T11:45:35.513Z,-0.62
2022-12-17T11:48:27.140Z,-0.57
2022-12-17T11:51:30.484Z,-0.52
2022-12-17T11:54:29.800Z,-0.70
2022-12-17T11:57:49.002Z,-0.50
2022-12-17T12:00:39.085Z,-0.45
2022-12-17T12:03:50.478Z,-0.41
2022-12-17T12:07:05.356Z,-0.42
2022-12-17T12:10:14.682Z,-0.57
2022-12-17T12:13:12.563Z,-0.67
2022-12-17T12:16:23.239Z,-0.79
2022-12-17T12:19:33.989Z,-0.67
2022-12-17T12:22:48.627Z,-0.88
2022-12-17T12:25:44.199Z,-0.79
2022-12-17T12:28:46.318Z,-0.89
2022-12-17T12:31:52.128Z,-0.86
2022-12-17T12:34:50.474Z,-0.95
2022-12-17T12:37:39.158Z,-0.89
2022-12-17T12:40:40.761Z,-0.94
2022-12-17T12:43:46.915Z,-0.84
2022-12-17T12:46:43.129Z,-0.81
2022-12-17T12:49:54.069Z,-0.81
2022-12-17T12:52:45.284Z,-0.77
2022-12-17T12:55:31.810Z,-0.92
2022-12-17T12:58:36.473Z,-1.09
2022-12-17T13:01:21.663Z,-1.05
2022-12-17T13:04:15.346Z,-1.13
2022-12-17T13:06:45.627Z,-1.12
2022-12-17T13:09:20.640Z,-1.08
2022-12-17T13:12:01.448Z,-1.10
2022-12-17T13:14:34.734Z,-0.97
2022-12-17T13:17:06.016Z,-0.95
2022-12-17T13:19:47.395Z,-0.89
2022-12-17T13:22:24.000Z,-1.02
2022-12-17T13:24:54.703Z,-1.09
2022-12-17T13:27:39.494Z,-1.25
2022-12-17T13:30:24.178Z,-1.22
2022-12-17T13:33:10.024Z,-1.23
2022-12-17T13:35:43.426Z,-1.29
2022-12-17T13:38:40.864Z,-1.30
2022-12-17T13:41:17.732Z,-1.33
2022-12-17T13:43:53.769Z,-1.34
2022-12-17T13:46:47.503Z,-1.33
2022-12-17T13:49:25.808Z,-1.27
2022-12-17T13:52:11.693Z,-1.26
2022-12-17T13:54:39.888Z,-1.38
2022-12-17T13:57:09.335Z,-1.43
2022-12-17T13:59:37.400Z,-1.51
2022-12-17T14:02:05.107Z,-1.56
2022-12-17T14:04:33.616Z,-1.66
2022-12-17T14:07:06.259Z,-1.70
2022-12-17T14:09:37.895Z,-1.66
2022-12-17T14:12:25.711Z,-1.62
2022-12-17T14:15:04.748Z,-1.74
2022-12-17T14:17:46.302Z,-1.86
2022-12-17T14:20:31.996Z,-1.91
2022-12-17T14:23:03.960Z,-2.00
2022-12-17T14:25:38.001Z,-1.97
2022-12-17T14:28:21.977Z,-1.97
2022-12-17T14:31:25.547Z,-2.09
2022-12-17T14:33:39.287Z,-2.00
2022-12-17T14:36:17.976Z,-1.98
2022-12-17T14:38:58.437Z,-1.90
2022-12-17T14:41:44.554Z,-1.93
2022-12-17T14:44:21.884Z,-1.99
2022-12-17T14:47:08.383Z,-2.03
2022-12-17T14:49:36.199Z,-2.04
2022-12-17T14:52:14.259Z,-1.93
2022-12-17T14:54:52.842Z,-2.00
2022-12-17T14:57:22.844Z,-1.95
2022-12-17T14:59:52.459Z,-2.03
2022-12-17T15:02:30.929Z,-2.02
2022-12-17T15:05:01.887Z,-2.02
2022-12-17T15:07:33.184Z,-2.03
2022-12-17T15:10:00.687Z,-2.01
2022-12-17T15:12:29.073Z,-2.05
2022-12-17T15:14:56.607Z,-2.26
2022-12-17T15:17:24.146Z,-2.25
2022-12-17T15:19:56.073Z,-2.26
2022-12-17T15:22:24.378Z,-2.27
2022-12-17T15:24:52.244Z,-2.32
2022-12-17T15:27:19.923Z,-2.36
2022-12-17T15:29:47.664Z,-2.43
2022-12-17T15:32:21.063Z,-2.40
2022-12-17T15:34:49.186Z,-2.34
2022-12-17T15:37:20.970Z,-2.33
2022-12-17T15:39:48.712Z,-2.51
2022-12-17T15:42:30.062Z,-2.43
2022-12-17T15:44:57.604Z,-2.52
2022-12-17T15:47:25.263Z,-2.47
2022-12-17T15:49:52.842Z,-2.42
2022-12-17T15:52:20.418Z,-2.49
2022-12-17T15:54:49.294Z,-2.60
2022-12-17T15:57:18.721Z,-2.48
2022-12-17T15:59:46.674Z,-2.55
2022-12-17T16:02:14.319Z,-2.46
2022-12-17T16:04:42.013Z,-2.53
2022-12-17T16:07:09.818Z,-2.51
2022-12-17T16:09:37.340Z,-2.58
2022-12-17T16:12:05.016Z,-2.60
2022-12-17T16:14:32.476Z,-2.59
2022-12-17T16:17:00.008Z,-2.54
2022-12-17T16:19:27.770Z,-2.55
2022-12-17T16:21:55.252Z,-2.50
2022-12-17T16:24:22.833Z,-2.54
2022-12-17T16:26:50.348Z,-2.68
2022-12-17T16:29:17.917Z,-2.65
2022-12-17T16:31:46.174Z,-2.64
2022-12-17T16:34:14.671Z,-2.75
2022-12-17T16:36:42.995Z,-2.79
2022-12-17T16:39:16.425Z,-2.84
2022-12-17T16:41:44.116Z,-2.87
2022-12-17T16:44:11.805Z,-2.85
2022-12-17T16:46:41.494Z,-2.81
2022-12-17T16:49:23.243Z,-2.79
2022-12-17T16:51:52.696Z,-2.88
2022-12-17T16:54:26.107Z,-2.89
2022-12-17T16:56:54.297Z,-2.92
2022-12-17T16:59:23.243Z,-2.85
2022-12-17T17:01:52.645Z,-2.84
2022-12-17T17:04:22.812Z,-2.80
2022-12-17T17:06:53.050Z,-2.83
2022-12-17T17:09:21.306Z,-2.85
2022-12-17T17:11:51.859Z,-2.81
2022-12-17T17:14:20.016Z,-2.80
2022-12-17T17:16:47.541Z,-2.78
2022-12-17T17:19:15.089Z,-2.76
2022-12-17T17:21:49.730Z,-2.76
2022-12-17T17:24:22.523Z,-2.76
2022-12-17T17:26:51.442Z,-2.82
2022-12-17T17:29:19.385Z,-2.77
2022-12-17T17:34:34.592Z,-2.75
2022-12-17T17:37:02.112Z,-2.83
2022-12-17T17:39:32.953Z,-2.88
2022-12-17T17:42:01.008Z,-2.95
2022-12-17T17:44:28.554Z,-3.00
2022-12-17T17:46:56.181Z,-3.02
2022-12-17T17:49:23.824Z,-3.10
2022-12-17T17:52:08.939Z,-3.08
2022-12-17T17:54:37.285Z,-3.04
2022-12-17T17:57:04.887Z,-3.05
2022-12-17T17:59:33.979Z,-3.06
2022-12-17T18:02:02.493Z,-3.03
2022-12-17T18:04:30.792Z,-3.04
2022-12-17T18:09:46.444Z,-3.00
2022-12-17T18:12:31.236Z,-3.13
2022-12-17T18:15:16.742Z,-2.97
2022-12-17T18:17:52.093Z,-3.11
2022-12-17T18:20:19.958Z,-3.09
2022-12-17T18:22:48.029Z,-3.10
2022-12-17T18:25:17.770Z,-3.10
2022-12-17T18:27:46.426Z,-3.10
2022-12-17T18:30:16.303Z,-3.05
2022-12-17T18:32:44.416Z,-3.08
2022-12-17T18:35:12.483Z,-3.05
2022-12-17T18:37:40.451Z,-3.01
2022-12-17T18:40:09.248Z,-2.97
2022-12-17T18:42:54.838Z,-3.07
2022-12-17T18:45:23.449Z,-3.11
2022-12-17T18:47:53.323Z,-3.17
2022-12-17T18:50:21.299Z,-3.17
2022-12-17T18:52:49.461Z,-3.22
2022-12-17T18:55:17.843Z,-3.22
2022-12-17T18:57:46.123Z,-3.23
2022-12-17T19:00:14.923Z,-3.18
2022-12-17T19:02:43.368Z,-3.15
2022-12-17T19:05:11.599Z,-3.14
2022-12-17T19:07:39.889Z,-3.11
2022-12-17T19:10:08.136Z,-3.12
2022-12-17T19:12:38.961Z,-3.11
2022-12-17T19:15:07.447Z,-3.09
2022-12-17T19:17:35.411Z,-3.16
2022-12-17T19:20:06.881Z,-3.25
2022-12-17T19:22:38.020Z,-3.19
2022-12-17T19:25:08.946Z,-3.24
2022-12-17T19:27:36.815Z,-3.25
2022-12-17T19:30:05.204Z,-3.16
2022-12-17T19:32:33.477Z,-3.26
2022-12-17T19:35:01.544Z,-3.19
2022-12-17T19:37:29.411Z,-3.12
2022-12-17T19:39:58.529Z,-3.11
2022-12-17T19:42:34.986Z,-3.07
2022-12-17T19:45:05.105Z,-3.14
2022-12-17T19:47:33.067Z,-3.20
2022-12-17T19:50:01.142Z,-3.28
2022-12-17T19:52:29.109Z,-3.26
2022-12-17T19:54:59.552Z,-3.26
2022-12-17T19:57:27.510Z,-3.33
2022-12-17T19:59:55.374Z,-3.46
2022-12-17T20:02:27.037Z,-3.41
2022-12-17T20:04:57.767Z,-3.50
2022-12-17T20:07:25.774Z,-3.50
2022-12-17T20:09:56.266Z,-3.52
2022-12-17T20:12:26.294Z,-3.45
2022-12-17T20:14:54.062Z,-3.47
2022-12-17T20:17:22.326Z,-3.43
2022-12-17T20:19:53.381Z,-3.45
2022-12-17T20:22:22.614Z,-3.47
2022-12-17T20:24:50.323Z,-3.45
2022-12-17T20:27:18.099Z,-3.47
2022-12-17T20:29:45.738Z,-3.54
2022-12-17T20:32:13.352Z,-3.52
2022-12-17T20:34:40.977Z,-3.57
2022-12-17T20:37:08.499Z,-3.56
2022-12-17T20:39:36.115Z,-3.63
2022-12-17T20:42:03.600Z,-3.54
2022-12-17T20:44:31.120Z,-3.59
2022-12-17T20:46:59.403Z,-3.64
2022-12-17T20:49:27.039Z,-3.71
2022-12-17T20:51:54.595Z,-3.70
2022-12-17T20:54:22.337Z,-3.68
2022-12-17T20:56:49.967Z,-3.83
2022-12-17T20:59:20.088Z,-3.80
2022-12-17T21:01:54.283Z,-3.78
2022-12-17T21:04:23.923Z,-3.85
2022-12-17T21:06:51.567Z,-3.81
2022-12-17T21:09:20.857Z,-3.79
2022-12-17T21:11:48.561Z,-3.79
2022-12-17T21:14:18.383Z,-3.80
2022-12-17T21:16:55.286Z,-3.72
2022-12-17T21:19:22.810Z,-3.78
2022-12-17T21:21:50.587Z,-3.86
2022-12-17T21:24:18.154Z,-3.78
2022-12-17T21:26:48.019Z,-3.89
2022-12-17T21:29:16.139Z,-3.85
2022-12-17T21:31:49.398Z,-3.88
2022-12-17T21:34:21.977Z,-4.04
2022-12-17T21:36:51.183Z,-4.09
2022-12-17T21:39:20.315Z,-4.13
2022-12-17T21:42:07.989Z,-4.05
2022-12-17T21:44:36.634Z,-4.03
2022-12-17T21:47:04.561Z,-3.97
2022-12-17T21:49:32.600Z,-4.08
2022-12-17T21:52:01.468Z,-4.11
2022-12-17T21:54:29.127Z,-4.15
2022-12-17T21:56:56.734Z,-4.10
2022-12-17T21:59:24.379Z,-4.11
2022-12-17T22:01:52.226Z,-4.05
2022-12-17T22:04:20.072Z,-4.05
2022-12-17T22:06:51.498Z,-3.99
2022-12-17T22:09:26.840Z,-4.04
2022-12-17T22:12:16.784Z,-4.09
2022-12-17T22:14:44.545Z,-4.05
2022-12-17T22:17:12.130Z,-4.07
2022-12-17T22:19:39.670Z,-4.04
2022-12-17T22:22:07.217Z,-4.08
2022-12-17T22:24:36.289Z,-4.11
2022-12-17T22:27:04.170Z,-4.02
2022-12-17T22:29:53.557Z,-4.11
2022-12-17T22:32:38.655Z,-3.99
2022-12-17T22:36:20.380Z,-4.00
2022-12-17T22:41:15.050Z,-4.11
2022-12-17T22:44:28.595Z,-4.07
2022-12-17T22:44:42.342Z,-4.08
2022-12-17T22:46:17.595Z,-4.12
2022-12-17T22:48:45.445Z,-4.14
2022-12-17T22:51:22.181Z,-4.08
2022-12-17T22:53:56.788Z,-4.08
2022-12-17T22:56:37.256Z,-4.10
2022-12-17T22:59:19.316Z,-4.11
2022-12-17T23:01:47.223Z,-3.99
2022-12-17T23:04:16.587Z,-3.98
2022-12-17T23:06:45.899Z,-4.00
2022-12-17T23:09:14.557Z,-4.05
2022-12-17T23:11:42.079Z,-4.00
2022-12-17T23:14:09.618Z,-4.06
2022-12-17T23:16:39.645Z,-3.96
2022-12-17T23:19:08.213Z,-3.99
2022-12-17T23:21:36.511Z,-3.98
2022-12-17T23:24:04.655Z,-4.00
2022-12-17T23:26:35.084Z,-4.00
2022-12-17T23:29:06.214Z,-4.17
2022-12-17T23:31:36.994Z,-4.18
2022-12-17T23:34:05.849Z,-4.19
2022-12-17T23:36:33.419Z,-4.20
2022-12-17T23:39:01.485Z,-4.19
2022-12-17T23:41:31.180Z,-4.28
2022-12-17T23:43:59.843Z,-4.35
2022-12-17T23:46:29.399Z,-4.25
2022-12-17T23:48:57.117Z,-4.31
2022-12-17T23:51:26.686Z,-4.35
2022-12-17T23:53:54.273Z,-4.37
2022-12-17T23:56:24.660Z,-4.28
2022-12-17T23:58:57.321Z,-4.38
